Time;durP1;ratioP1;P1;durP2;ratioP2;P2;SDS_P1;SDS_P2;PMS_P1;PMS_P2;Temp;Humidity;BMP_temperature;BMP_pressure;BME280_temperature;BME280_humidity;BME280_pressure;Samples;Min_cycle;Max_cycle;Signal;HPM_P1;HPM_P2
2022/09/16 00:00:58;;;;;;;1.10;1.10;;;15.90;99.90;;;;;;5062402;28;20286;-60
2022/09/16 00:03:24;;;;;;;0.90;0.90;;;15.90;99.90;;;;;;5064818;28;20214;-61
2022/09/16 00:05:52;;;;;;;1.13;0.90;;;15.90;99.90;;;;;;5062183;28;20208;-62
2022/09/16 00:08:20;;;;;;;1.10;1.10;;;15.90;99.90;;;;;;5064936;28;20227;-61
2022/09/16 00:10:47;;;;;;;1.33;1.00;;;15.90;99.90;;;;;;5062247;28;20680;-61
2022/09/16 00:13:16;;;;;;;1.00;1.00;;;15.90;99.90;;;;;;5065833;28;20226;-60
2022/09/16 00:15:45;;;;;;;0.93;0.93;;;15.90;99.90;;;;;;5062928;28;20206;-61
2022/09/16 00:18:12;;;;;;;1.50;1.10;;;15.80;99.90;;;;;;5058409;28;20257;-63
2022/09/16 00:20:44;;;;;;;1.30;1.20;;;15.80;99.90;;;;;;5063305;28;20673;-63
2022/09/16 00:23:11;;;;;;;1.00;1.00;;;15.70;99.90;;;;;;5060771;28;20198;-60
2022/09/16 00:25:37;;;;;;;0.90;0.90;;;15.70;99.90;;;;;;5066781;28;20207;-61
2022/09/16 00:28:04;;;;;;;1.20;1.10;;;15.70;99.90;;;;;;5059521;28;20216;-61
2022/09/16 00:30:32;;;;;;;1.20;1.10;;;15.80;99.90;;;;;;5068388;28;20219;-62
2022/09/16 00:33:00;;;;;;;1.10;1.10;;;15.80;99.90;;;;;;5056437;28;20633;-60
2022/09/16 00:35:27;;;;;;;1.00;1.00;;;15.80;99.90;;;;;;5067408;28;20210;-62
2022/09/16 00:37:54;;;;;;;0.80;0.80;;;15.80;99.90;;;;;;5062741;28;20203;-62
2022/09/16 00:40:21;;;;;;;1.00;1.00;;;15.90;99.90;;;;;;5060921;28;20712;-62
2022/09/16 00:42:48;;;;;;;1.03;1.00;;;15.90;99.90;;;;;;5065114;28;20291;-61
2022/09/16 00:45:17;;;;;;;0.90;0.90;;;15.80;99.90;;;;;;5055550;28;20673;-61
2022/09/16 00:47:50;;;;;;;1.10;1.00;;;15.80;99.90;;;;;;5064412;28;20216;-61
2022/09/16 00:50:21;;;;;;;0.80;0.80;;;15.80;99.90;;;;;;5063671;28;20245;-61
2022/09/16 00:52:50;;;;;;;1.00;1.00;;;15.80;99.90;;;;;;5065078;28;20199;-62
2022/09/16 00:55:27;;;;;;;0.97;0.97;;;15.80;99.90;;;;;;5067463;28;20214;-62
2022/09/16 00:57:57;;;;;;;0.87;0.87;;;15.80;99.90;;;;;;5075189;28;20204;-62
2022/09/16 01:00:23;;;;;;;1.00;1.00;;;15.70;99.90;;;;;;5060922;28;20220;-62
2022/09/16 01:02:52;;;;;;;0.90;0.90;;;15.70;99.90;;;;;;5067365;28;20653;-61
2022/09/16 01:05:22;;;;;;;0.90;0.90;;;15.70;99.90;;;;;;5060083;28;20200;-61
2022/09/16 01:07:50;;;;;;;1.00;1.00;;;15.70;99.90;;;;;;5061359;28;20718;-62
2022/09/16 01:10:21;;;;;;;1.10;1.10;;;15.70;99.90;;;;;;5063543;28;20299;-61
2022/09/16 01:12:51;;;;;;;1.00;1.00;;;15.70;99.90;;;;;;5055171;28;20200;-60
2022/09/16 01:15:18;;;;;;;0.90;0.90;;;15.70;99.90;;;;;;5063933;28;20238;-60
2022/09/16 01:18:14;;;;;;;1.00;1.00;;;15.70;99.90;;;;;;5061258;28;20226;-61
2022/09/16 01:21:05;;;;;;;1.00;1.00;;;15.70;99.90;;;;;;5062907;28;20650;-61
2022/09/16 01:23:59;;;;;;;1.03;1.03;;;15.70;99.90;;;;;;5058587;28;20203;-61
2022/09/16 01:27:05;;;;;;;1.00;1.00;;;15.60;99.90;;;;;;5060590;28;20245;-60
2022/09/16 01:29:50;;;;;;;1.03;1.03;;;15.60;99.90;;;;;;5055477;28;20559;-61
2022/09/16 01:32:26;;;;;;;0.80;0.80;;;15.70;99.90;;;;;;5054512;28;20704;-61
2022/09/16 01:35:03;;;;;;;1.00;1.00;;;15.70;99.90;;;;;;5062565;28;20203;-61
2022/09/16 01:37:40;;;;;;;0.90;0.90;;;15.70;99.90;;;;;;5061030;28;20298;-62
2022/09/16 01:40:13;;;;;;;1.43;1.00;;;15.60;99.90;;;;;;5052601;28;20229;-61
2022/09/16 01:42:46;;;;;;;1.20;1.10;;;15.70;99.90;;;;;;5061685;28;20203;-61
2022/09/16 01:45:20;;;;;;;0.90;0.90;;;15.60;99.90;;;;;;5063512;28;20199;-61
2022/09/16 01:47:55;;;;;;;1.00;1.00;;;15.70;99.90;;;;;;5060983;28;20234;-61
2022/09/16 01:50:29;;;;;;;1.10;1.10;;;15.80;99.90;;;;;;5062684;28;20236;-61
2022/09/16 01:53:05;;;;;;;1.10;1.10;;;15.80;99.90;;;;;;5059134;28;20658;-61
2022/09/16 01:55:36;;;;;;;1.00;1.00;;;15.80;99.90;;;;;;5065907;28;20782;-63
2022/09/16 01:58:10;;;;;;;1.20;1.10;;;15.70;99.90;;;;;;5056315;28;20204;-60
2022/09/16 02:00:40;;;;;;;1.00;1.00;;;15.70;99.90;;;;;;5066790;28;20223;-63
2022/09/16 02:03:11;;;;;;;0.90;0.90;;;15.70;99.90;;;;;;5059339;28;20203;-61
2022/09/16 02:05:44;;;;;;;0.90;0.90;;;15.70;99.90;;;;;;5060051;28;20207;-61
2022/09/16 02:08:15;;;;;;;1.13;1.00;;;15.80;99.90;;;;;;5062814;28;20681;-63
2022/09/16 02:10:44;;;;;;;0.90;0.90;;;15.80;99.90;;;;;;5059917;28;20196;-60
2022/09/16 02:13:19;;;;;;;1.00;1.00;;;15.80;99.90;;;;;;5064274;28;20203;-61
2022/09/16 02:15:50;;;;;;;0.87;0.87;;;15.80;99.90;;;;;;5060845;28;20203;-61
2022/09/16 02:18:22;;;;;;;0.93;0.90;;;15.80;99.90;;;;;;5060642;28;20669;-63
2022/09/16 02:20:53;;;;;;;0.90;0.90;;;15.90;99.90;;;;;;5061254;28;20655;-61
2022/09/16 02:23:23;;;;;;;1.30;1.13;;;15.90;99.90;;;;;;5062019;28;20689;-61
2022/09/16 02:25:52;;;;;;;1.10;1.10;;;15.90;99.90;;;;;;5061669;28;20258;-61
2022/09/16 02:28:24;;;;;;;1.20;1.10;;;15.90;99.90;;;;;;5061863;28;20225;-62
2022/09/16 02:30:55;;;;;;;1.07;1.07;;;15.80;99.90;;;;;;5060747;28;20196;-61
2022/09/16 02:33:27;;;;;;;0.97;0.97;;;15.70;99.90;;;;;;5062504;28;20289;-62
2022/09/16 02:35:56;;;;;;;1.00;1.00;;;15.80;99.90;;;;;;5065249;28;20657;-60
2022/09/16 02:38:26;;;;;;;1.00;1.00;;;15.80;99.90;;;;;;5058661;28;20206;-62
2022/09/16 02:40:56;;;;;;;1.13;1.13;;;15.70;99.90;;;;;;5065768;28;20550;-61
2022/09/16 02:43:23;;;;;;;1.07;1.07;;;15.70;99.90;;;;;;5065900;28;20214;-61
2022/09/16 02:45:58;;;;;;;0.90;0.90;;;15.60;99.90;;;;;;5069101;28;20200;-62
2022/09/16 02:48:35;;;;;;;0.93;0.93;;;15.70;99.90;;;;;;5062223;28;20223;-61
2022/09/16 02:51:11;;;;;;;0.90;0.90;;;15.80;99.90;;;;;;5050958;28;20207;-62
2022/09/16 02:53:46;;;;;;;1.10;1.10;;;15.70;99.90;;;;;;5063521;28;20196;-62
2022/09/16 02:56:21;;;;;;;1.00;1.00;;;15.80;99.90;;;;;;5066978;28;20204;-61
2022/09/16 02:58:48;;;;;;;1.30;1.20;;;15.80;99.90;;;;;;5063827;28;20708;-61
2022/09/16 03:01:17;;;;;;;1.00;1.00;;;15.80;99.90;;;;;;5069561;28;20235;-60
2022/09/16 03:03:46;;;;;;;1.03;1.00;;;15.80;99.90;;;;;;5070330;28;20277;-62
2022/09/16 03:06:19;;;;;;;1.00;1.00;;;15.70;99.90;;;;;;5069981;28;20214;-62
2022/09/16 03:08:47;;;;;;;0.97;0.97;;;15.70;99.90;;;;;;5062533;28;20231;-62
2022/09/16 03:11:49;;;;;;;0.90;0.90;;;15.80;99.90;;;;;;5066238;28;20199;-63
2022/09/16 03:14:37;;;;;;;0.90;0.90;;;15.80;99.90;;;;;;5048613;28;20203;-61
2022/09/16 03:17:15;;;;;;;0.80;0.80;;;15.80;99.90;;;;;;5065084;28;20584;-62
2022/09/16 03:19:54;;;;;;;1.00;1.00;;;15.80;99.90;;;;;;5064258;28;20219;-61
2022/09/16 03:22:32;;;;;;;0.90;0.90;;;15.80;99.90;;;;;;5057801;28;20207;-61
2022/09/16 03:25:07;;;;;;;1.00;1.00;;;15.80;99.90;;;;;;5068664;28;20228;-62
2022/09/16 03:27:40;;;;;;;1.10;1.00;;;15.70;99.90;;;;;;5058714;28;20231;-62
2022/09/16 03:30:09;;;;;;;1.10;1.10;;;15.70;99.90;;;;;;5068135;28;20231;-62
2022/09/16 03:32:42;;;;;;;1.60;0.93;;;15.70;99.90;;;;;;5062556;28;20196;-60
2022/09/16 03:35:16;;;;;;;0.93;0.93;;;15.80;99.90;;;;;;5068755;28;20218;-62
2022/09/16 03:37:46;;;;;;;1.10;1.00;;;15.70;99.90;;;;;;5061371;28;20254;-63
2022/09/16 03:40:15;;;;;;;1.10;1.10;;;15.70;99.90;;;;;;5067513;28;20219;-60
2022/09/16 03:42:44;;;;;;;0.93;0.93;;;15.70;99.90;;;;;;5062835;28;20204;-60
2022/09/16 03:45:15;;;;;;;1.30;1.30;;;15.70;99.90;;;;;;5065307;28;20217;-62
2022/09/16 03:47:43;;;;;;;1.03;1.00;;;15.70;99.90;;;;;;5063640;28;20568;-61
2022/09/16 03:50:13;;;;;;;1.00;1.00;;;15.70;99.90;;;;;;5065110;28;20601;-61
2022/09/16 03:52:40;;;;;;;1.00;1.00;;;15.70;99.90;;;;;;5067003;28;20627;-60
2022/09/16 03:55:08;;;;;;;0.80;0.80;;;15.70;99.90;;;;;;5057753;28;20200;-61
2022/09/16 03:57:35;;;;;;;1.00;1.00;;;15.70;99.90;;;;;;5064272;28;20230;-63
2022/09/16 04:00:03;;;;;;;0.90;0.90;;;15.70;99.90;;;;;;5064384;28;20219;-62
2022/09/16 04:02:30;;;;;;;1.10;1.10;;;15.70;99.90;;;;;;5067778;28;20669;-60
2022/09/16 04:04:57;;;;;;;1.00;1.00;;;15.70;99.90;;;;;;5060900;28;20206;-60
2022/09/16 04:07:25;;;;;;;1.07;1.03;;;15.70;99.90;;;;;;5065992;28;20203;-61
2022/09/16 04:09:52;;;;;;;1.00;1.00;;;15.80;99.90;;;;;;5061597;28;20623;-60
2022/09/16 04:12:19;;;;;;;1.23;1.13;;;15.80;99.90;;;;;;5066305;28;20199;-61
2022/09/16 04:14:46;;;;;;;1.07;1.00;;;15.90;99.90;;;;;;5064638;28;20653;-61
2022/09/16 04:17:12;;;;;;;1.07;1.07;;;15.90;99.90;;;;;;5064870;28;20215;-61
2022/09/16 04:19:39;;;;;;;1.30;1.20;;;15.90;99.90;;;;;;5063441;28;20229;-62
2022/09/16 04:22:06;;;;;;;1.10;1.10;;;15.90;99.90;;;;;;5051943;28;20226;-62
2022/09/16 04:24:34;;;;;;;1.00;1.00;;;15.90;99.90;;;;;;5056372;28;20204;-62
2022/09/16 04:27:01;;;;;;;1.00;1.00;;;16.00;99.90;;;;;;5054914;28;20199;-64
2022/09/16 04:29:28;;;;;;;1.00;0.90;;;16.10;99.90;;;;;;5060329;28;20223;-62
2022/09/16 04:31:55;;;;;;;1.00;1.00;;;16.30;99.90;;;;;;5064785;28;20207;-62
2022/09/16 04:34:22;;;;;;;1.10;1.10;;;16.20;99.90;;;;;;5062164;28;20203;-63
2022/09/16 04:36:48;;;;;;;1.00;1.00;;;16.30;99.90;;;;;;5070255;28;20214;-63
2022/09/16 04:39:15;;;;;;;1.03;1.03;;;16.20;99.90;;;;;;5057326;28;20747;-63
2022/09/16 04:41:43;;;;;;;1.10;1.10;;;16.20;99.90;;;;;;5060979;28;20200;-62
2022/09/16 04:44:10;;;;;;;1.00;1.00;;;16.20;99.90;;;;;;5055151;28;20706;-65
2022/09/16 04:46:37;;;;;;;1.00;1.00;;;16.20;99.90;;;;;;5061049;28;20210;-62
2022/09/16 04:49:05;;;;;;;1.00;1.00;;;16.20;99.90;;;;;;5060466;28;20223;-62
2022/09/16 04:51:32;;;;;;;1.20;1.10;;;16.30;99.90;;;;;;5057349;28;20204;-64
2022/09/16 04:54:00;;;;;;;1.10;1.10;;;16.20;99.90;;;;;;5056406;28;20673;-63
2022/09/16 04:56:30;;;;;;;0.90;0.90;;;16.10;99.90;;;;;;5062287;28;20298;-63
2022/09/16 04:59:01;;;;;;;1.30;1.20;;;16.10;99.90;;;;;;5062469;28;20227;-63
2022/09/16 05:01:29;;;;;;;1.13;1.13;;;16.00;99.90;;;;;;5063676;28;20199;-65
2022/09/16 05:03:58;;;;;;;1.30;1.27;;;15.90;99.90;;;;;;5063164;28;20210;-64
2022/09/16 05:06:27;;;;;;;1.23;1.23;;;15.90;99.90;;;;;;5071087;28;20217;-64
2022/09/16 05:08:55;;;;;;;1.47;1.47;;;15.90;99.90;;;;;;5067705;28;20651;-62
2022/09/16 05:11:23;;;;;;;1.60;1.50;;;15.80;99.90;;;;;;5063243;28;20665;-62
2022/09/16 05:13:50;;;;;;;1.70;1.60;;;15.80;99.90;;;;;;5064616;28;20209;-62
2022/09/16 05:16:20;;;;;;;1.77;1.67;;;15.60;99.90;;;;;;5063441;28;20207;-63
2022/09/16 05:18:49;;;;;;;1.70;1.60;;;15.60;99.90;;;;;;5064737;28;20215;-62
2022/09/16 05:21:18;;;;;;;2.00;1.90;;;15.60;99.90;;;;;;5063208;28;20614;-63
2022/09/16 05:23:45;;;;;;;1.80;1.70;;;15.50;99.90;;;;;;5055139;28;20200;-61
2022/09/16 05:26:14;;;;;;;2.00;1.90;;;15.50;99.90;;;;;;5063083;28;20924;-62
2022/09/16 05:28:42;;;;;;;1.93;1.83;;;15.50;99.90;;;;;;5062263;28;20253;-61
2022/09/16 05:31:10;;;;;;;1.80;1.70;;;15.40;99.90;;;;;;5067400;28;20323;-61
2022/09/16 05:33:39;;;;;;;1.60;1.50;;;15.40;99.90;;;;;;5062573;28;20222;-62
2022/09/16 05:36:08;;;;;;;1.40;1.33;;;15.20;99.90;;;;;;5064518;28;20199;-62
2022/09/16 05:38:35;;;;;;;1.40;1.30;;;15.00;99.90;;;;;;5065079;28;20971;-62
2022/09/16 05:41:03;;;;;;;1.40;1.30;;;14.90;99.90;;;;;;5056310;28;20289;-62
2022/09/16 05:43:30;;;;;;;1.23;1.23;;;14.80;99.90;;;;;;5066357;28;20207;-62
2022/09/16 05:45:58;;;;;;;1.30;1.30;;;14.80;99.90;;;;;;5061651;28;20723;-61
2022/09/16 05:48:25;;;;;;;1.37;1.27;;;14.80;99.90;;;;;;5062002;28;20219;-62
2022/09/16 05:50:55;;;;;;;1.30;1.30;;;14.80;99.90;;;;;;5066547;28;20580;-63
2022/09/16 05:53:22;;;;;;;1.20;1.20;;;14.80;99.90;;;;;;5059664;28;20197;-63
2022/09/16 05:55:57;;;;;;;1.50;1.50;;;14.80;99.90;;;;;;5066002;28;20203;-62
2022/09/16 05:58:24;;;;;;;1.30;1.20;;;14.80;99.90;;;;;;5058455;28;20191;-61
2022/09/16 06:00:51;;;;;;;1.77;1.40;;;14.80;99.90;;;;;;5060072;28;20196;-61
2022/09/16 06:03:18;;;;;;;1.53;1.43;;;14.90;99.90;;;;;;5050712;28;20233;-60
2022/09/16 06:05:45;;;;;;;1.10;1.10;;;14.80;99.90;;;;;;5051880;28;20663;-61
2022/09/16 06:08:13;;;;;;;1.40;1.30;;;14.80;99.90;;;;;;5057331;28;20200;-62
2022/09/16 06:10:41;;;;;;;1.27;1.17;;;14.80;99.90;;;;;;5063719;28;20211;-62
2022/09/16 06:13:08;;;;;;;1.10;1.10;;;14.80;99.90;;;;;;5066181;28;20230;-62
2022/09/16 06:15:35;;;;;;;1.50;1.40;;;14.80;99.90;;;;;;5063068;28;20210;-61
2022/09/16 06:18:02;;;;;;;1.40;1.30;;;14.80;99.90;;;;;;5069636;28;20621;-62
2022/09/16 06:20:29;;;;;;;1.40;1.30;;;14.80;99.90;;;;;;5057139;28;20223;-62
2022/09/16 06:22:56;;;;;;;1.10;1.10;;;14.80;99.90;;;;;;5078713;22;20237;-69
2022/09/16 06:25:24;;;;;;;1.00;1.00;;;14.80;99.90;;;;;;5078329;28;20266;-69
2022/09/16 06:27:51;;;;;;;1.30;1.20;;;14.80;99.90;;;;;;5069814;28;20568;-69
2022/09/16 06:30:18;;;;;;;1.00;1.00;;;14.80;99.90;;;;;;5066155;28;20222;-68
2022/09/16 06:32:45;;;;;;;1.10;1.10;;;14.80;99.90;;;;;;5073009;28;20229;-70
2022/09/16 06:35:12;;;;;;;1.13;1.13;;;14.80;99.90;;;;;;5064402;28;20206;-68
2022/09/16 06:37:39;;;;;;;1.13;1.10;;;14.80;99.90;;;;;;5067193;28;20195;-70
2022/09/16 06:40:06;;;;;;;1.00;1.00;;;14.80;99.90;;;;;;5068206;28;20761;-69
2022/09/16 06:42:35;;;;;;;1.07;1.07;;;14.90;99.90;;;;;;5067231;28;20227;-69
2022/09/16 06:45:03;;;;;;;1.03;1.03;;;14.90;99.90;;;;;;5062636;28;20195;-68
2022/09/16 06:47:32;;;;;;;1.10;1.10;;;14.90;99.90;;;;;;5067602;28;20257;-69
2022/09/16 06:49:58;;;;;;;1.10;1.10;;;14.80;99.90;;;;;;5065745;28;20219;-69
2022/09/16 06:52:26;;;;;;;1.20;1.20;;;14.80;99.90;;;;;;5063401;28;20230;-69
2022/09/16 06:54:53;;;;;;;1.40;1.30;;;14.80;99.90;;;;;;5057365;28;20207;-68
2022/09/16 06:57:21;;;;;;;1.00;1.00;;;14.80;99.90;;;;;;5067807;28;20199;-69
2022/09/16 06:59:50;;;;;;;1.20;1.20;;;14.70;99.90;;;;;;5056913;28;20235;-69
2022/09/16 07:02:17;;;;;;;1.17;1.17;;;14.70;99.90;;;;;;5067826;28;20206;-69
2022/09/16 07:04:44;;;;;;;1.10;1.10;;;14.70;99.90;;;;;;5065010;28;20206;-70
2022/09/16 07:07:11;;;;;;;1.10;1.10;;;14.70;99.90;;;;;;5062344;28;20289;-69
2022/09/16 07:09:38;;;;;;;1.03;1.03;;;14.70;99.90;;;;;;5058685;28;20222;-69
2022/09/16 07:12:05;;;;;;;1.10;1.10;;;14.70;99.90;;;;;;5050516;28;20302;-69
2022/09/16 07:14:32;;;;;;;1.37;1.27;;;14.70;99.90;;;;;;5053677;28;20202;-69
2022/09/16 07:17:01;;;;;;;1.20;1.20;;;14.70;99.90;;;;;;5051373;28;20579;-69
2022/09/16 07:19:28;;;;;;;1.23;1.23;;;14.80;99.90;;;;;;5051679;28;20283;-69
2022/09/16 07:21:55;;;;;;;1.10;1.10;;;14.70;99.90;;;;;;5065832;28;20230;-69
2022/09/16 07:24:22;;;;;;;1.23;1.20;;;14.70;99.90;;;;;;5056087;28;20319;-68
2022/09/16 07:26:49;;;;;;;1.33;1.33;;;14.70;99.90;;;;;;5049997;28;20276;-69
2022/09/16 07:29:17;;;;;;;1.20;1.20;;;14.80;99.90;;;;;;5053780;28;20224;-70
2022/09/16 07:31:44;;;;;;;1.30;1.30;;;14.80;99.90;;;;;;5049749;28;20196;-69
2022/09/16 07:34:13;;;;;;;1.10;1.10;;;14.80;99.90;;;;;;5053965;28;20249;-68
2022/09/16 07:36:42;;;;;;;1.20;1.20;;;14.80;99.90;;;;;;5050762;28;20208;-69
2022/09/16 07:39:09;;;;;;;1.07;1.07;;;14.80;99.90;;;;;;5061045;28;20202;-68
2022/09/16 07:41:38;;;;;;;1.30;1.20;;;14.80;99.90;;;;;;5060972;28;20224;-69
2022/09/16 07:44:07;;;;;;;1.30;1.20;;;14.80;99.90;;;;;;5058673;28;20645;-69
2022/09/16 07:46:35;;;;;;;1.57;1.47;;;14.80;99.90;;;;;;5050397;28;20209;-69
2022/09/16 07:49:04;;;;;;;1.00;1.00;;;14.70;99.90;;;;;;5055860;28;20686;-69
2022/09/16 07:51:33;;;;;;;1.00;1.00;;;14.60;99.90;;;;;;5055421;28;20204;-69
2022/09/16 07:54:03;;;;;;;1.00;1.00;;;14.60;99.90;;;;;;5048665;28;20219;-68
2022/09/16 07:56:33;;;;;;;1.00;1.00;;;14.70;99.90;;;;;;5052708;28;20210;-68
2022/09/16 07:59:01;;;;;;;1.30;1.20;;;14.80;99.90;;;;;;5049915;28;20203;-68
2022/09/16 08:01:29;;;;;;;1.07;1.07;;;14.60;99.90;;;;;;5055642;28;20596;-69
2022/09/16 08:03:57;;;;;;;1.20;1.20;;;14.50;99.90;;;;;;5055026;28;20215;-67
2022/09/16 08:06:27;;;;;;;1.03;1.03;;;14.50;99.90;;;;;;5053942;28;20609;-68
2022/09/16 08:08:58;;;;;;;1.03;1.03;;;14.60;99.90;;;;;;5051171;28;20219;-70
2022/09/16 08:11:26;;;;;;;1.10;1.10;;;14.70;99.90;;;;;;5055752;28;20200;-69
2022/09/16 08:13:53;;;;;;;1.10;1.10;;;14.80;99.90;;;;;;5059600;28;20639;-69
2022/09/16 08:16:22;;;;;;;1.00;1.00;;;15.00;99.90;;;;;;5055323;28;20214;-70
2022/09/16 08:18:51;;;;;;;1.10;1.10;;;14.90;99.90;;;;;;5052999;28;20596;-69
2022/09/16 08:21:19;;;;;;;0.97;0.97;;;15.00;99.90;;;;;;5054132;28;20200;-68
2022/09/16 08:23:46;;;;;;;1.30;1.20;;;15.00;99.90;;;;;;5046043;28;20610;-68
2022/09/16 08:26:15;;;;;;;1.00;1.00;;;15.10;99.90;;;;;;5053878;28;20287;-67
2022/09/16 08:28:43;;;;;;;1.10;1.10;;;15.30;99.90;;;;;;5054149;28;20206;-68
2022/09/16 08:31:10;;;;;;;1.00;1.00;;;15.30;99.90;;;;;;5051713;28;20226;-69
2022/09/16 08:33:39;;;;;;;1.20;1.10;;;15.40;99.90;;;;;;5052736;28;20230;-68
2022/09/16 08:36:10;;;;;;;1.00;1.00;;;15.50;99.90;;;;;;5050271;28;20210;-68
2022/09/16 08:38:37;;;;;;;0.80;0.80;;;15.50;99.90;;;;;;5050493;28;20203;-68
2022/09/16 08:41:19;;;;;;;1.00;1.00;;;15.60;99.90;;;;;;5051227;28;20208;-69
2022/09/16 08:43:57;;;;;;;1.00;1.00;;;15.60;99.90;;;;;;5047618;28;20220;-69
2022/09/16 08:46:32;;;;;;;0.93;0.93;;;15.70;99.90;;;;;;5052888;28;20200;-68
2022/09/16 08:49:03;;;;;;;0.90;0.90;;;15.70;99.90;;;;;;5046579;28;20450;-70
2022/09/16 08:51:29;;;;;;;1.13;1.13;;;15.70;99.90;;;;;;5053658;28;20230;-67
2022/09/16 08:53:59;;;;;;;0.90;0.90;;;15.70;99.90;;;;;;5046216;28;20219;-68
2022/09/16 08:56:30;;;;;;;0.80;0.80;;;15.70;99.90;;;;;;5048448;28;20350;-69
2022/09/16 08:59:01;;;;;;;0.87;0.87;;;15.70;99.90;;;;;;5049887;28;20195;-68
2022/09/16 09:01:34;;;;;;;1.00;1.00;;;15.90;99.90;;;;;;5057703;28;20229;-69
2022/09/16 09:04:02;;;;;;;0.80;0.80;;;15.90;99.90;;;;;;5057067;28;20294;-70
2022/09/16 09:06:49;;;;;;;1.17;1.17;;;15.90;99.90;;;;;;5052915;28;20287;-69
2022/09/16 09:09:38;;;;;;;0.83;0.83;;;15.90;99.90;;;;;;5055800;28;20195;-69
2022/09/16 09:12:13;;;;;;;0.90;0.90;;;15.90;99.90;;;;;;5052658;28;20220;-68
2022/09/16 09:14:57;;;;;;;0.90;0.90;;;16.00;99.90;;;;;;5052345;28;20250;-69
2022/09/16 09:17:35;;;;;;;0.90;0.90;;;16.00;99.90;;;;;;5061341;28;20209;-69
2022/09/16 09:20:15;;;;;;;1.00;1.00;;;16.00;99.90;;;;;;5046608;28;20656;-70
2022/09/16 09:23:02;;;;;;;0.90;0.90;;;16.10;99.90;;;;;;5056612;28;20246;-70
2022/09/16 09:25:37;;;;;;;1.00;1.00;;;16.20;99.90;;;;;;5053197;28;20315;-71
2022/09/16 09:28:22;;;;;;;0.70;0.70;;;16.20;99.90;;;;;;5059611;28;20199;-70
2022/09/16 09:30:59;;;;;;;0.90;0.90;;;16.30;99.90;;;;;;5062881;28;20690;-71
2022/09/16 09:33:35;;;;;;;0.83;0.83;;;16.50;99.90;;;;;;5046461;28;20247;-69
2022/09/16 09:36:21;;;;;;;0.80;0.80;;;16.60;99.90;;;;;;5046390;28;20576;-69
2022/09/16 09:39:07;;;;;;;0.80;0.80;;;16.70;99.90;;;;;;5064417;28;20242;-71
2022/09/16 09:41:39;;;;;;;0.50;0.50;;;16.90;99.90;;;;;;5054493;28;20214;-69
2022/09/16 09:44:34;;;;;;;0.80;0.80;;;16.80;99.90;;;;;;5060458;28;20224;-68
2022/09/16 09:47:09;;;;;;;0.70;0.70;;;16.70;99.90;;;;;;5050875;28;20566;-69
2022/09/16 09:49:42;;;;;;;0.83;0.83;;;16.70;99.90;;;;;;5055742;28;20230;-69
2022/09/16 09:52:15;;;;;;;0.97;0.97;;;16.60;99.90;;;;;;5061327;28;20213;-69
2022/09/16 09:54:47;;;;;;;0.80;0.80;;;16.40;99.90;;;;;;5055550;28;20206;-67
2022/09/16 09:57:20;;;;;;;1.10;1.10;;;16.40;99.90;;;;;;5064118;28;20294;-68
2022/09/16 09:59:50;;;;;;;1.23;1.13;;;16.40;99.90;;;;;;5060262;28;20295;-68
2022/09/16 10:02:21;;;;;;;1.00;1.00;;;16.40;99.90;;;;;;5064874;28;20203;-68
2022/09/16 10:04:49;;;;;;;0.83;0.83;;;16.50;99.90;;;;;;5057992;28;20626;-69
2022/09/16 10:07:19;;;;;;;0.70;0.70;;;16.50;99.90;;;;;;5064383;28;20195;-69
2022/09/16 10:09:50;;;;;;;0.97;0.97;;;16.70;99.90;;;;;;5059547;28;20764;-68
2022/09/16 10:12:27;;;;;;;1.27;1.27;;;16.70;99.90;;;;;;5059205;28;20199;-67
2022/09/16 10:14:54;;;;;;;1.00;1.00;;;16.70;99.90;;;;;;5064268;28;20212;-68
2022/09/16 10:17:23;;;;;;;1.07;1.07;;;16.60;99.90;;;;;;5055097;28;20202;-69
2022/09/16 10:19:55;;;;;;;1.17;1.17;;;16.60;99.90;;;;;;5054041;28;20692;-69
2022/09/16 10:22:25;;;;;;;1.00;1.00;;;16.60;99.90;;;;;;5061380;28;20219;-69
2022/09/16 10:24:57;;;;;;;1.20;1.20;;;16.60;99.90;;;;;;5063708;28;20291;-68
2022/09/16 10:27:27;;;;;;;1.17;1.10;;;16.60;99.90;;;;;;5048575;28;20196;-68
2022/09/16 10:30:06;;;;;;;1.03;1.03;;;16.60;99.90;;;;;;5062756;28;20228;-69
2022/09/16 10:32:56;;;;;;;1.77;1.20;;;16.60;99.90;;;;;;5060453;28;20599;-68
2022/09/16 10:35:27;;;;;;;1.37;1.27;;;16.80;99.90;;;;;;5060349;28;20196;-67
2022/09/16 10:37:56;;;;;;;1.00;1.00;;;17.00;99.90;;;;;;5055910;28;20215;-67
2022/09/16 10:40:24;;;;;;;1.20;1.20;;;17.10;99.90;;;;;;5062370;28;20199;-67
2022/09/16 10:42:53;;;;;;;1.43;1.40;;;17.20;99.90;;;;;;5062170;28;20240;-68
2022/09/16 10:45:26;;;;;;;1.30;1.20;;;17.20;99.90;;;;;;5066589;28;20203;-67
2022/09/16 10:47:57;;;;;;;1.20;1.20;;;17.10;99.90;;;;;;5062236;28;20266;-69
2022/09/16 10:50:25;;;;;;;1.37;1.27;;;17.10;99.90;;;;;;5057212;28;20216;-68
2022/09/16 10:52:53;;;;;;;1.10;1.10;;;17.00;99.90;;;;;;5058550;28;20228;-69
2022/09/16 10:55:26;;;;;;;1.00;1.00;;;17.10;99.90;;;;;;5045908;28;20287;-69
2022/09/16 10:57:54;;;;;;;1.43;1.33;;;17.30;99.90;;;;;;5059727;28;20204;-68
2022/09/16 11:00:22;;;;;;;1.13;1.10;;;17.40;99.90;;;;;;5065788;28;20202;-69
2022/09/16 11:03:21;;;;;;;1.07;1.00;;;17.40;99.90;;;;;;5059856;28;20511;-68
2022/09/16 11:05:59;;;;;;;1.00;1.00;;;17.50;99.90;;;;;;5043163;28;20251;-68
2022/09/16 11:08:41;;;;;;;0.90;0.90;;;17.40;99.90;;;;;;5051189;28;20200;-69
2022/09/16 11:11:14;;;;;;;1.00;1.00;;;17.30;99.90;;;;;;5065318;28;20207;-68
2022/09/16 11:13:51;;;;;;;1.07;1.07;;;17.10;99.90;;;;;;5059955;28;20227;-68
2022/09/16 11:16:45;;;;;;;1.23;1.23;;;17.20;99.90;;;;;;5054757;28;20202;-68
2022/09/16 11:19:20;;;;;;;0.90;0.90;;;17.20;99.90;;;;;;5060491;28;20206;-70
2022/09/16 11:22:02;;;;;;;1.47;0.97;;;17.10;99.90;;;;;;5056808;28;20560;-70
2022/09/16 11:24:50;;;;;;;1.10;1.10;;;17.00;99.90;;;;;;5061125;28;20209;-68
2022/09/16 11:27:29;;;;;;;1.43;1.30;;;17.20;99.90;;;;;;5055230;28;20203;-68
2022/09/16 11:30:12;;;;;;;1.10;1.10;;;17.00;99.90;;;;;;5062296;28;20615;-68
2022/09/16 11:32:54;;;;;;;1.13;1.13;;;16.90;99.90;;;;;;5056191;28;20254;-69
2022/09/16 11:35:35;;;;;;;1.53;1.10;;;16.90;99.90;;;;;;5050561;28;20210;-69
2022/09/16 11:38:15;;;;;;;1.00;1.00;;;16.80;99.90;;;;;;5064825;28;20203;-68
2022/09/16 11:40:47;;;;;;;1.40;1.30;;;16.80;99.90;;;;;;5063872;28;20199;-69
2022/09/16 11:43:49;;;;;;;1.43;1.33;;;16.70;99.90;;;;;;5058824;28;20223;-69
2022/09/16 11:46:23;;;;;;;1.47;1.37;;;16.60;99.90;;;;;;5059903;28;20205;-69
2022/09/16 11:49:05;;;;;;;0.90;0.90;;;16.50;99.90;;;;;;5073989;28;20215;-69
2022/09/16 11:51:52;;;;;;;0.90;0.90;;;16.50;99.90;;;;;;5066045;28;20224;-68
2022/09/16 11:54:33;;;;;;;0.87;0.87;;;16.60;99.90;;;;;;5058340;28;20313;-68
2022/09/16 11:57:03;;;;;;;0.90;0.90;;;16.60;99.90;;;;;;5069266;28;20211;-69
2022/09/16 11:59:35;;;;;;;1.03;1.03;;;16.80;99.90;;;;;;5064044;28;20297;-68
2022/09/16 12:02:09;;;;;;;0.60;0.60;;;17.10;99.90;;;;;;5053961;28;20593;-67
2022/09/16 12:04:41;;;;;;;0.50;0.50;;;17.30;99.90;;;;;;5052881;28;20301;-68
2022/09/16 12:07:14;;;;;;;0.60;0.60;;;17.40;99.90;;;;;;5056991;28;20254;-69
2022/09/16 12:09:46;;;;;;;0.70;0.70;;;17.30;99.90;;;;;;5058273;28;20200;-68
2022/09/16 12:12:16;;;;;;;0.70;0.70;;;17.30;99.90;;;;;;5063544;28;20215;-69
2022/09/16 12:14:48;;;;;;;0.70;0.70;;;17.60;99.90;;;;;;5060108;28;20207;-68
2022/09/16 12:17:20;;;;;;;0.70;0.70;;;17.60;99.90;;;;;;5058912;28;20217;-68
2022/09/16 12:19:51;;;;;;;0.80;0.80;;;17.30;99.90;;;;;;5058958;28;20290;-68
2022/09/16 12:22:23;;;;;;;0.70;0.70;;;17.40;99.90;;;;;;5052305;28;20199;-70
2022/09/16 12:24:58;;;;;;;3.40;0.80;;;17.60;99.90;;;;;;5061921;28;20196;-69
2022/09/16 12:27:39;;;;;;;0.63;0.63;;;17.90;99.90;;;;;;5048920;28;20200;-69
2022/09/16 12:30:13;;;;;;;0.80;0.80;;;18.30;99.90;;;;;;5055442;28;20195;-69
2022/09/16 12:32:49;;;;;;;0.57;0.57;;;18.40;99.90;;;;;;5060162;28;20220;-70
2022/09/16 12:35:20;;;;;;;0.60;0.60;;;18.20;99.90;;;;;;5063200;28;20202;-69
2022/09/16 12:37:50;;;;;;;0.63;0.57;;;18.20;99.90;;;;;;5060474;28;20200;-69
2022/09/16 12:40:23;;;;;;;1.70;0.93;;;18.20;99.90;;;;;;5063446;28;20199;-68
2022/09/16 12:43:35;;;;;;;0.80;0.80;;;18.10;99.90;;;;;;5068570;28;20274;-69
2022/09/16 12:46:41;;;;;;;0.60;0.60;;;18.00;99.90;;;;;;5054795;28;20200;-68
2022/09/16 12:49:36;;;;;;;0.97;0.97;;;18.20;99.90;;;;;;5053032;28;20323;-68
2022/09/16 12:52:25;;;;;;;0.70;0.70;;;18.40;99.90;;;;;;5050210;28;20230;-69
2022/09/16 12:55:24;;;;;;;0.60;0.60;;;18.80;99.90;;;;;;5060515;28;20564;-68
2022/09/16 12:58:14;;;;;;;1.40;0.80;;;18.90;99.90;;;;;;5043933;28;20582;-69
2022/09/16 13:00:50;;;;;;;0.73;0.73;;;18.60;99.90;;;;;;5067158;28;20207;-68
2022/09/16 13:03:21;;;;;;;0.83;0.83;;;18.80;99.90;;;;;;5059350;28;20223;-69
2022/09/16 13:05:51;;;;;;;0.80;0.80;;;18.90;99.90;;;;;;5067015;28;20204;-69
2022/09/16 13:08:24;;;;;;;0.73;0.73;;;18.90;99.90;;;;;;5065398;28;20209;-68
2022/09/16 13:10:58;;;;;;;0.80;0.80;;;18.70;99.90;;;;;;5065939;28;20734;-69
2022/09/16 13:13:32;;;;;;;1.00;1.00;;;18.70;99.90;;;;;;5068066;28;20216;-69